Time;durP1;ratioP1;P1;durP2;ratioP2;P2;SDS_P1;SDS_P2;PMS_P1;PMS_P2;Temp;Humidity;BMP_temperature;BMP_pressure;BME280_temperature;BME280_humidity;BME280_pressure;Samples;Min_cycle;Max_cycle;Signal;HPM_P1;HPM_P2
2023/12/02 00:00:40;;;;;;;38.83;11.70;;;2.80;99.90;;;0.77;100.00;98491.03;10473152;27;96504;-95
2023/12/02 00:05:44;;;;;;;28.50;7.10;;;2.80;99.90;;;0.78;100.00;98500.53;10479903;27;97529;-95
2023/12/02 00:10:49;;;;;;;41.97;8.80;;;2.80;99.90;;;0.77;100.00;98472.72;10487832;27;97306;-94
2023/12/02 00:15:53;;;;;;;43.23;7.70;;;2.80;99.90;;;0.80;100.00;98476.84;10450543;27;96531;-94
2023/12/02 00:20:57;;;;;;;45.87;7.00;;;2.80;99.90;;;0.87;100.00;98496.19;10448119;27;96433;-93
2023/12/02 00:26:00;;;;;;;27.73;5.03;;;2.90;99.90;;;0.79;100.00;98476.03;10453588;27;96598;-94
2023/12/02 00:31:05;;;;;;;45.00;5.97;;;2.90;99.90;;;0.82;100.00;98455.78;10472091;27;96422;-94
2023/12/02 00:36:09;;;;;;;22.77;4.30;;;2.90;99.90;;;0.91;100.00;98492.31;10467730;27;96505;-95
2023/12/02 00:41:13;;;;;;;64.07;6.57;;;3.00;99.90;;;0.96;100.00;98478.78;10472356;27;96630;-96
2023/12/02 00:46:17;;;;;;;39.23;4.70;;;3.00;99.90;;;0.96;100.00;98484.88;10488176;27;96734;-95
2023/12/02 00:51:21;;;;;;;19.07;3.30;;;3.00;99.90;;;1.01;100.00;98479.97;10474858;27;96837;-95
2023/12/02 00:56:25;;;;;;;30.80;4.77;;;3.00;99.90;;;1.00;100.00;98467.88;10480101;27;96533;-96
2023/12/02 01:01:28;;;;;;;53.63;9.57;;;3.00;99.90;;;1.07;100.00;98468.91;10454196;27;96531;-96
2023/12/02 01:06:32;;;;;;;64.57;7.70;;;3.10;99.90;;;1.06;100.00;98472.50;10459831;27;96577;-95
2023/12/02 01:11:36;;;;;;;46.27;4.97;;;3.10;99.90;;;1.09;100.00;98479.25;10470890;27;97447;-95
2023/12/02 01:16:40;;;;;;;37.13;5.33;;;3.10;99.90;;;1.06;100.00;98472.50;10456949;27;96468;-95
2023/12/02 01:21:43;;;;;;;50.07;5.60;;;3.10;99.90;;;1.13;100.00;98464.06;10463171;27;96447;-94
2023/12/02 01:26:47;;;;;;;41.13;5.70;;;3.10;99.90;;;1.10;100.00;98465.19;10471460;27;96470;-95
2023/12/02 01:31:51;;;;;;;40.13;5.70;;;3.10;99.90;;;1.09;100.00;98445.25;10465328;27;96691;-95
2023/12/02 01:36:54;;;;;;;36.20;5.70;;;3.10;99.90;;;1.15;100.00;98465.56;10485257;27;97473;-94
2023/12/02 01:41:58;;;;;;;50.70;5.77;;;3.10;99.90;;;1.17;100.00;98452.34;10500030;27;96533;-95
2023/12/02 01:47:04;;;;;;;69.67;6.80;;;3.20;99.90;;;1.20;100.00;98455.47;10485358;27;96504;-95
2023/12/02 01:52:08;;;;;;;58.90;6.00;;;3.20;99.90;;;1.24;100.00;98442.91;10453238;27;96710;-95
2023/12/02 01:57:13;;;;;;;45.73;6.60;;;3.20;99.90;;;1.21;100.00;98432.75;10448793;27;96541;-94
2023/12/02 02:02:17;;;;;;;48.83;6.20;;;3.20;99.90;;;1.21;100.00;98422.28;10446950;27;96956;-94
2023/12/02 02:07:21;;;;;;;47.90;6.47;;;3.20;99.90;;;1.26;100.00;98414.78;10484292;27;96690;-95
2023/12/02 02:12:25;;;;;;;62.10;7.40;;;3.20;99.90;;;1.25;100.00;98424.44;10469380;27;96493;-95
2023/12/02 02:17:29;;;;;;;39.47;4.87;;;3.30;99.90;;;1.25;100.00;98429.66;10483840;27;96441;-95
2023/12/02 02:22:34;;;;;;;44.87;6.00;;;3.30;99.90;;;1.27;100.00;98411.22;10465493;27;97086;-94
2023/12/02 02:27:38;;;;;;;77.40;7.13;;;3.30;99.90;;;1.27;100.00;98401.56;10472855;27;96470;-95
2023/12/02 02:32:42;;;;;;;24.87;4.27;;;3.30;99.90;;;1.29;100.00;98401.41;10436629;27;96626;-95
2023/12/02 02:37:46;;;;;;;41.80;5.40;;;3.30;99.90;;;1.27;100.00;98404.19;10436379;27;96620;-95
2023/12/02 02:42:50;;;;;;;27.33;5.17;;;3.30;99.90;;;1.28;100.00;98390.13;10475956;27;96532;-94
2023/12/02 02:47:54;;;;;;;42.93;6.37;;;3.30;99.90;;;1.27;100.00;98391.09;10465219;27;96636;-94
2023/12/02 02:52:57;;;;;;;73.07;7.07;;;3.30;99.90;;;1.32;100.00;98388.03;10463516;27;96527;-94
2023/12/02 02:58:05;;;;;;;70.93;8.17;;;3.30;99.90;;;1.33;100.00;98380.03;10452350;27;97096;-94
2023/12/02 03:03:09;;;;;;;50.97;6.20;;;3.30;99.90;;;1.36;100.00;98391.16;10487459;27;97955;-95
2023/12/02 03:08:12;;;;;;;59.17;6.37;;;3.30;99.90;;;1.35;100.00;98372.00;10434884;27;96616;-94
2023/12/02 03:13:17;;;;;;;51.73;5.80;;;3.30;99.90;;;1.39;100.00;98383.00;10502210;27;96441;-92
2023/12/02 03:18:20;;;;;;;26.93;3.97;;;3.40;99.90;;;1.39;100.00;98383.81;10450220;27;96622;-94
2023/12/02 03:23:25;;;;;;;32.30;5.17;;;3.40;99.90;;;1.39;100.00;98385.63;10475649;27;96466;-94
2023/12/02 03:28:29;;;;;;;43.63;5.40;;;3.40;99.90;;;1.43;100.00;98373.84;10491338;27;96399;-94
2023/12/02 03:33:32;;;;;;;40.60;6.03;;;3.40;99.90;;;1.46;100.00;98360.47;10472409;27;96557;-94
2023/12/02 03:38:37;;;;;;;31.27;4.20;;;3.40;99.90;;;1.48;100.00;98361.13;10472747;27;96568;-95
2023/12/02 03:43:40;;;;;;;104.60;8.70;;;3.40;99.90;;;1.49;100.00;98352.28;10433129;27;96536;-95
2023/12/02 03:49:02;;;;;;;60.60;6.70;;;3.50;99.90;;;1.47;100.00;98338.53;10482933;27;96597;-94
2023/12/02 03:54:06;;;;;;;63.00;5.40;;;3.50;99.90;;;1.46;100.00;98340.34;10462298;27;96438;-95
2023/12/02 03:59:11;;;;;;;76.60;6.10;;;3.50;99.90;;;1.49;100.00;98368.81;10439814;27;96522;-95
2023/12/02 04:04:14;;;;;;;44.33;5.00;;;3.50;99.90;;;1.52;100.00;98373.75;10489509;27;96895;-95
2023/12/02 04:09:18;;;;;;;76.87;6.40;;;3.50;99.90;;;1.54;100.00;98368.34;10502222;27;96570;-94
2023/12/02 04:14:22;;;;;;;53.07;5.33;;;3.50;99.90;;;1.51;100.00;98359.03;10474443;27;96460;-93
2023/12/02 04:19:27;;;;;;;33.00;4.27;;;3.50;99.90;;;1.52;100.00;98331.06;10447810;27;96370;-94
2023/12/02 04:24:31;;;;;;;53.70;6.13;;;3.50;99.90;;;1.55;100.00;98343.81;10466177;27;96758;-93
2023/12/02 04:29:41;;;;;;;36.57;4.97;;;3.50;99.90;;;1.53;100.00;98351.00;10431252;27;96616;-94
2023/12/02 04:34:45;;;;;;;48.07;5.83;;;3.50;99.90;;;1.55;100.00;98359.53;10476009;27;96395;-94
2023/12/02 04:39:49;;;;;;;80.60;6.83;;;3.50;99.90;;;1.55;100.00;98354.28;10447670;27;96607;-93
2023/12/02 04:44:52;;;;;;;60.23;6.67;;;3.50;99.90;;;1.53;100.00;98351.00;10465368;27;97100;-94
2023/12/02 04:49:56;;;;;;;35.37;5.43;;;3.50;99.90;;;1.59;100.00;98353.00;10465351;27;96580;-93
2023/12/02 04:55:00;;;;;;;44.07;4.47;;;3.50;99.90;;;1.57;100.00;98347.13;10485097;27;96572;-94
2023/12/02 05:00:13;;;;;;;75.17;6.63;;;3.60;99.90;;;1.60;100.00;98333.69;10479634;27;96693;-94
2023/12/02 05:05:18;;;;;;;72.33;5.73;;;3.50;99.90;;;1.62;100.00;98350.09;10456404;27;96452;-94
2023/12/02 05:10:22;;;;;;;61.37;5.50;;;3.60;99.90;;;1.65;100.00;98343.72;10472759;27;96483;-94
2023/12/02 05:15:26;;;;;;;57.30;4.87;;;3.60;99.90;;;1.65;100.00;98331.44;10471646;27;96398;-94
2023/12/02 05:20:29;;;;;;;67.80;6.20;;;3.60;99.90;;;1.64;100.00;98329.81;10485479;27;97424;-94
2023/12/02 05:25:33;;;;;;;65.47;6.67;;;3.60;99.90;;;1.65;100.00;98320.97;10463122;27;96551;-94
2023/12/02 05:30:38;;;;;;;45.50;4.30;;;3.60;99.90;;;1.63;100.00;98309.84;10450476;27;97874;-94
2023/12/02 05:35:42;;;;;;;65.63;6.20;;;3.60;99.90;;;1.65;100.00;98299.19;10484975;27;96498;-95
2023/12/02 05:40:46;;;;;;;58.97;6.23;;;3.60;99.90;;;1.64;100.00;98310.66;10451908;27;96490;-95
2023/12/02 05:45:50;;;;;;;48.87;6.20;;;3.60;99.90;;;1.67;100.00;98308.53;10487789;27;96577;-95
2023/12/02 05:50:57;;;;;;;48.13;3.93;;;3.60;99.90;;;1.69;100.00;98305.78;10483421;27;96510;-94
2023/12/02 05:56:01;;;;;;;86.63;7.17;;;3.60;99.90;;;1.70;100.00;98303.00;10473401;27;96524;-94
2023/12/02 06:01:05;;;;;;;90.57;6.17;;;3.70;99.90;;;1.71;100.00;98324.75;10455500;27;97327;-94
2023/12/02 06:06:11;;;;;;;58.00;5.27;;;3.70;99.90;;;1.70;100.00;98302.16;10454748;27;96652;-94
2023/12/02 06:11:15;;;;;;;57.07;6.70;;;3.70;99.90;;;1.71;100.00;98314.28;10474956;27;98211;-94
2023/12/02 06:16:19;;;;;;;70.57;7.63;;;3.70;99.90;;;1.72;100.00;98310.69;10483258;27;96544;-94
2023/12/02 06:21:23;;;;;;;82.23;10.87;;;3.70;99.90;;;1.68;100.00;98325.06;10464529;27;96436;-94
2023/12/02 06:26:26;;;;;;;54.93;9.13;;;3.60;99.90;;;1.68;100.00;98335.53;10470039;27;96400;-93
2023/12/02 06:31:30;;;;;;;67.03;9.53;;;3.60;99.90;;;1.68;100.00;98335.53;10496483;27;97961;-94
2023/12/02 06:36:34;;;;;;;56.37;9.60;;;3.60;99.90;;;1.71;100.00;98362.22;10459345;27;96407;-94
2023/12/02 06:41:41;;;;;;;85.80;14.43;;;3.70;99.90;;;1.73;100.00;98344.56;10490528;27;96498;-94
2023/12/02 06:46:44;;;;;;;61.57;10.20;;;3.70;99.90;;;1.77;100.00;98348.50;10463348;27;97198;-93
2023/12/02 06:51:48;;;;;;;88.80;12.60;;;3.70;99.90;;;1.83;100.00;98336.59;10481072;27;96549;-93
2023/12/02 06:56:52;;;;;;;68.70;10.63;;;3.80;99.90;;;1.81;100.00;98334.13;10477361;27;96521;-93
2023/12/02 07:01:56;;;;;;;69.97;10.63;;;3.80;99.90;;;1.85;100.00;98338.06;10478093;27;96850;-92
2023/12/02 07:07:00;;;;;;;120.27;15.97;;;3.80;99.90;;;1.88;100.00;98336.94;10459848;27;96536;-94
2023/12/02 07:12:04;;;;;;;61.30;11.27;;;3.90;99.90;;;1.86;100.00;98338.91;10485726;27;96571;-93
2023/12/02 07:17:08;;;;;;;97.43;13.03;;;3.80;99.90;;;1.91;100.00;98359.38;10471883;27;96563;-93
2023/12/02 07:22:12;;;;;;;93.17;12.57;;;3.90;99.90;;;1.93;100.00;98346.94;10469840;27;96504;-91
2023/12/02 07:27:16;;;;;;;109.03;11.60;;;3.90;99.90;;;1.93;100.00;98344.34;10475730;27;96544;-91
2023/12/02 07:32:19;;;;;;;117.87;14.20;;;3.90;99.90;;;1.93;100.00;98333.84;10456605;27;98103;-91
2023/12/02 07:37:23;;;;;;;97.90;17.47;;;3.90;99.90;;;1.97;100.00;98335.16;10462862;27;96614;-91
2023/12/02 07:42:27;;;;;;;130.57;18.67;;;3.90;99.90;;;1.97;100.00;98325.50;10477274;27;96491;-91
2023/12/02 07:47:31;;;;;;;101.63;12.90;;;4.00;99.90;;;1.96;100.00;98307.31;10460916;27;96733;-91
2023/12/02 07:52:35;;;;;;;117.70;16.07;;;4.00;99.90;;;2.08;100.00;98327.81;10484886;27;97846;-90
2023/12/02 07:57:39;;;;;;;167.67;22.30;;;4.00;99.90;;;2.12;100.00;98328.34;10454984;27;98311;-91
2023/12/02 08:02:43;;;;;;;144.30;19.77;;;4.10;99.90;;;2.15;100.00;98318.34;10472635;27;98262;-91
2023/12/02 08:07:46;;;;;;;115.77;15.40;;;4.20;99.90;;;2.27;100.00;98324.09;10484112;27;96572;-89
2023/12/02 08:12:50;;;;;;;185.80;23.33;;;4.20;99.90;;;2.44;100.00;98337.25;10455944;27;98987;-93
2023/12/02 08:17:54;;;;;;;135.43;17.87;;;4.40;99.90;;;2.51;100.00;98325.94;10457765;27;98510;-89
2023/12/02 08:22:58;;;;;;;97.73;11.17;;;4.50;99.90;;;2.60;100.00;98332.03;10451500;27;96590;-92
2023/12/02 08:28:04;;;;;;;120.70;18.67;;;4.60;99.90;;;2.63;100.00;98340.38;10447833;27;97010;-92
2023/12/02 08:33:07;;;;;;;100.20;18.90;;;4.60;99.90;;;2.69;100.00;98341.53;10462706;27;96533;-91
2023/12/02 08:38:11;;;;;;;89.10;17.50;;;4.70;99.90;;;2.77;100.00;98359.91;10448840;27;96557;-88
2023/12/02 08:43:15;;;;;;;130.80;21.60;;;4.70;99.90;;;2.82;100.00;98349.75;10458119;27;96491;-90
2023/12/02 08:48:19;;;;;;;95.37;13.07;;;4.80;99.90;;;2.90;100.00;98349.75;10451255;27;96953;-90
2023/12/02 08:53:23;;;;;;;67.60;11.43;;;4.90;99.90;;;2.90;100.00;98360.25;10434157;27;96632;-89
2023/12/02 08:58:26;;;;;;;98.57;13.67;;;4.90;99.90;;;2.90;100.00;98331.38;10449272;27;96444;-89
2023/12/02 09:03:30;;;;;;;104.43;17.47;;;4.90;99.90;;;2.99;100.00;98336.59;10459766;27;97034;-89
2023/12/02 09:08:34;;;;;;;108.97;15.27;;;5.00;99.90;;;3.08;100.00;98335.63;10466735;27;96541;-90
2023/12/02 09:13:46;;;;;;;91.73;10.83;;;5.10;99.90;;;3.19;100.00;98340.56;10469076;27;98306;-89
2023/12/02 09:18:51;;;;;;;93.40;19.30;;;5.10;99.90;;;3.25;100.00;98341.69;10467706;27;96549;-89
2023/12/02 09:23:59;;;;;;;68.00;14.00;;;5.20;99.90;;;3.31;100.00;98330.53;10485127;27;96563;-89
2023/12/02 09:29:03;;;;;;;71.27;12.07;;;5.30;99.90;;;3.33;100.00;98324.09;10448281;27;96622;-89
2023/12/02 09:34:40;;;;;;;20.47;5.87;;;5.40;99.90;;;3.38;100.00;98329.69;10459223;27;96797;-90
2023/12/02 09:40:20;;;;;;;36.47;7.77;;;5.40;99.90;;;3.38;100.00;98336.75;10452241;27;97562;-89
2023/12/02 09:45:53;;;;;;;38.70;8.03;;;5.40;99.90;;;3.29;100.00;98325.41;10468352;27;96427;-89
2023/12/02 09:51:14;;;;;;;35.10;7.33;;;5.30;99.90;;;3.31;100.00;98325.28;10459326;27;96619;-89
2023/12/02 09:56:24;;;;;;;53.88;10.00;;;5.20;99.90;;;3.28;100.00;98313.28;10450187;27;96531;-89
2023/12/02 10:02:04;;;;;;;55.93;9.93;;;5.20;99.90;;;3.21;100.00;98293.94;10488343;27;96701;-90
2023/12/02 10:07:34;;;;;;;37.63;7.47;;;5.10;99.90;;;3.20;100.00;98297.56;10492870;27;97567;-89
2023/12/02 10:13:19;;;;;;;46.20;9.47;;;5.10;99.90;;;3.12;100.00;98300.19;10493742;27;96509;-88
2023/12/02 10:18:29;;;;;;;65.23;8.30;;;5.00;99.90;;;3.06;100.00;98280.69;10420872;27;96749;-88
2023/12/02 10:24:02;;;;;;;48.53;8.40;;;5.00;99.90;;;3.05;100.00;98278.22;10451053;27;96509;-89
2023/12/02 10:29:11;;;;;;;54.50;10.65;;;5.00;99.90;;;3.08;100.00;98288.41;10467041;27;96471;-88
2023/12/02 10:34:28;;;;;;;54.50;11.87;;;5.00;99.90;;;3.05;100.00;98267.72;10449246;27;96470;-89
2023/12/02 10:39:46;;;;;;;37.30;7.80;;;4.90;99.90;;;3.09;100.00;98269.03;10433210;27;96502;-88
2023/12/02 10:45:02;;;;;;;34.17;8.07;;;5.00;99.90;;;3.11;100.00;98267.06;10450426;27;96519;-88
2023/12/02 10:50:07;;;;;;;33.50;6.43;;;5.00;99.90;;;3.12;100.00;98273.94;10433479;27;96602;-88
2023/12/02 10:55:13;;;;;;;30.07;8.07;;;5.00;99.90;;;3.14;100.00;98240.50;10450008;27;96814;-89
2023/12/02 11:00:19;;;;;;;48.07;9.80;;;5.10;99.90;;;3.16;100.00;98238.50;10459744;27;96559;-89
2023/12/02 11:05:28;;;;;;;38.97;11.43;;;5.10;99.90;;;3.16;100.00;98233.25;10498247;27;96498;-88
2023/12/02 11:10:42;;;;;;;41.43;13.47;;;5.10;99.90;;;3.17;100.00;98232.25;10481433;27;97043;-89
2023/12/02 11:16:16;;;;;;;58.10;14.60;;;5.10;99.90;;;3.21;100.00;98204.69;10466366;27;96437;-89
2023/12/02 11:22:20;;;;;;;54.83;15.47;;;5.10;99.90;;;3.23;100.00;98205.34;10468699;27;96682;-89
2023/12/02 11:28:07;;;;;;;79.10;18.10;;;5.20;99.90;;;3.25;100.00;98203.38;10489557;27;96531;-88
2023/12/02 11:34:08;;;;;;;73.23;15.63;;;5.20;99.90;;;3.24;100.00;98196.50;10504847;27;96788;-89
2023/12/02 11:39:22;;;;;;;74.27;17.40;;;5.20;99.90;;;3.16;100.00;98178.13;10452151;27;96646;-88
2023/12/02 11:44:57;;;;;;;74.33;18.10;;;5.20;99.90;;;3.18;100.00;98194.56;10447256;27;96461;-88
2023/12/02 11:50:39;;;;;;;75.23;13.87;;;5.10;99.90;;;3.19;100.00;98211.94;10430513;27;96647;-88
2023/12/02 11:56:06;;;;;;;87.70;14.70;;;5.10;99.90;;;3.19;100.00;98219.81;10476891;27;96600;-89
2023/12/02 12:01:40;;;;;;;56.63;10.80;;;5.20;99.90;;;3.23;100.00;98224.53;10488414;27;97360;-89
2023/12/02 12:07:34;;;;;;;97.20;12.23;;;5.20;99.90;;;3.23;100.00;98210.59;10463740;27;96532;-89
2023/12/02 12:12:45;;;;;;;55.72;9.35;;;5.20;99.90;;;3.22;100.00;98207.16;10457119;27;96966;-89
2023/12/02 12:17:48;;;;;;;64.47;11.53;;;5.20;99.90;;;3.22;100.00;98194.03;10458808;27;96455;-89
2023/12/02 12:22:52;;;;;;;67.87;15.77;;;5.20;99.90;;;3.26;100.00;98206.81;10455974;27;96956;-88
2023/12/02 12:28:06;;;;;;;46.97;11.43;;;5.20;99.90;;;3.25;100.00;98206.00;10474860;27;96655;-89
2023/12/02 12:33:17;;;;;;;49.10;11.30;;;5.30;99.90;;;3.28;100.00;98200.41;10460572;27;97766;-90
2023/12/02 12:38:22;;;;;;;43.07;11.13;;;5.30;99.90;;;3.32;100.00;98203.53;10444158;27;96583;-89
2023/12/02 12:43:26;;;;;;;68.13;13.30;;;5.30;99.90;;;3.35;100.00;98185.59;10475643;27;96598;-87
2023/12/02 12:48:30;;;;;;;47.27;10.63;;;5.30;99.90;;;3.34;100.00;98189.22;10455600;27;96906;-87
2023/12/02 12:53:41;;;;;;;48.37;12.43;;;5.30;99.90;;;3.35;100.00;98184.78;10457680;27;96771;-88
2023/12/02 12:59:00;;;;;;;58.33;13.50;;;5.30;99.90;;;3.30;100.00;98166.09;10482570;27;97236;-91
2023/12/02 13:04:33;;;;;;;67.20;13.83;;;5.20;99.90;;;3.27;100.00;98174.31;10449453;27;96492;-91
2023/12/02 13:09:46;;;;;;;73.47;14.23;;;5.20;99.90;;;3.18;100.00;98184.06;10453583;27;96722;-93
2023/12/02 13:14:53;;;;;;;42.90;10.63;;;5.10;99.90;;;3.10;100.00;98207.69;10449094;27;96891;-93
2023/12/02 13:20:03;;;;;;;24.50;8.27;;;5.10;99.90;;;2.98;100.00;98224.78;10463751;27;96543;-87
2023/12/02 13:25:10;;;;;;;15.63;6.20;;;4.90;99.90;;;2.90;100.00;98223.00;10484922;27;96477;-88
2023/12/02 13:30:15;;;;;;;19.93;5.23;;;4.80;99.90;;;2.83;100.00;98212.34;10504487;27;96639;-88
2023/12/02 13:35:30;;;;;;;14.60;5.07;;;4.70;99.90;;;2.85;100.00;98206.94;10459254;27;96561;-91
2023/12/02 13:41:29;;;;;;;32.13;12.00;;;4.70;99.90;;;2.85;100.00;98215.63;10472505;27;97099;-87
2023/12/02 13:46:46;;;;;;;13.80;6.60;;;4.70;99.90;;;2.76;100.00;98221.88;10460126;27;96546;-86
2023/12/02 13:52:32;;;;;;;13.77;5.57;;;4.70;99.90;;;2.68;100.00;98245.47;10442659;27;97515;-86
2023/12/02 13:58:14;;;;;;;11.63;5.60;;;4.60;99.90;;;2.59;100.00;98314.66;10468000;27;96761;-86
2023/12/02 14:03:43;;;;;;;12.13;6.50;;;4.50;99.90;;;2.45;100.00;98349.38;10488044;27;98253;-86
2023/12/02 14:08:54;;;;;;;14.40;6.90;;;4.30;99.90;;;2.29;100.00;98313.47;10485971;27;97615;-87
2023/12/02 14:14:22;;;;;;;12.57;6.40;;;4.20;99.90;;;2.15;100.00;98309.66;10464323;27;96436;-90
2023/12/02 14:19:59;;;;;;;18.33;7.53;;;4.10;99.90;;;2.07;100.00;98315.72;10478677;27;96469;-87
2023/12/02 14:25:26;;;;;;;21.70;11.27;;;4.00;99.90;;;1.98;100.00;98316.69;10453721;27;96579;-88
2023/12/02 14:30:34;;;;;;;11.07;5.50;;;3.90;99.90;;;1.94;100.00;98341.53;10475594;27;96642;-88
2023/12/02 14:35:56;;;;;;;13.07;6.70;;;3.80;99.90;;;1.93;100.00;98344.34;10489657;27;96487;-88
2023/12/02 14:41:25;;;;;;;14.77;6.68;;;3.80;99.90;;;1.87;100.00;98346.59;10462446;27;96525;-88
2023/12/02 14:46:30;;;;;;;14.70;7.00;;;3.80;99.90;;;1.77;100.00;98337.22;10476667;27;96787;-89
2023/12/02 14:51:35;;;;;;;17.37;7.03;;;3.70;99.90;;;1.69;100.00;98319.69;10441416;27;97531;-88
2023/12/02 14:56:40;;;;;;;11.83;5.90;;;3.60;99.90;;;1.63;100.00;98346.50;10486476;27;96556;-88
2023/12/02 15:01:49;;;;;;;11.23;5.03;;;3.50;99.90;;;1.56;100.00;98330.59;10475087;27;96613;-87
2023/12/02 15:06:54;;;;;;;8.47;4.77;;;3.50;99.90;;;1.44;100.00;98346.69;10450386;27;96562;-87
2023/12/02 15:12:04;;;;;;;7.70;3.60;;;3.40;99.90;;;1.33;100.00;98285.00;10432790;27;96412;-88
2023/12/02 15:17:09;;;;;;;8.13;4.40;;;3.30;99.90;;;1.24;100.00;98333.81;10500090;27;96439;-88
2023/12/02 15:22:14;;;;;;;7.90;4.77;;;3.20;99.90;;;1.21;100.00;98330.72;10478147;27;96521;-88
2023/12/02 15:27:21;;;;;;;19.33;6.23;;;3.20;99.90;;;1.14;100.00;98327.91;10497853;27;96890;-88
2023/12/02 15:32:25;;;;;;;43.80;11.13;;;3.10;99.90;;;1.14;100.00;98432.53;10457901;27;97783;-88
2023/12/02 15:37:30;;;;;;;30.73;16.57;;;3.10;99.90;;;1.10;100.00;98310.03;10455636;27;96998;-88
2023/12/02 15:42:33;;;;;;;20.67;9.27;;;3.10;99.90;;;0.93;100.00;98369.25;10448065;27;96602;-87
2023/12/02 15:47:37;;;;;;;23.87;10.50;;;3.00;99.90;;;0.87;100.00;98364.63;10464703;27;96745;-87
2023/12/02 15:52:41;;;;;;;25.97;11.60;;;2.90;99.90;;;0.73;100.00;98300.63;10452835;27;96659;-87
2023/12/02 15:57:45;;;;;;;34.70;14.50;;;2.70;99.90;;;0.63;100.00;98407.88;10459947;27;96516;-87
2023/12/02 16:02:50;;;;;;;26.70;12.13;;;2.60;99.90;;;0.48;100.00;98420.66;10486233;27;96545;-87
2023/12/02 16:07:55;;;;;;;29.40;13.73;;;2.50;99.90;;;0.31;100.00;98431.88;10458084;27;96585;-87
2023/12/02 16:13:00;;;;;;;27.87;11.93;;;2.40;99.90;;;0.16;100.00;98489.00;10471207;27;96563;-85
2023/12/02 16:18:04;;;;;;;28.67;13.57;;;2.20;99.90;;;0.03;100.00;98487.69;10538369;27;96251;-87
2023/12/02 16:23:08;;;;;;;31.80;15.57;;;2.00;99.90;;;-0.08;100.00;98486.88;10518340;27;95712;-83
2023/12/02 16:28:11;;;;;;;28.67;13.30;;;1.90;99.90;;;-0.18;100.00;98495.69;10484201;27;96772;-90
2023/12/02 16:33:17;;;;;;;25.93;13.17;;;1.80;99.90;;;-0.20;100.00;98487.19;10464704;27;96776;-87
2023/12/02 16:38:22;;;;;;;24.57;12.10;;;1.70;99.90;;;-0.27;100.00;98492.16;10457938;27;96552;-88
2023/12/02 16:43:25;;;;;;;24.87;12.23;;;1.70;99.90;;;-0.30;100.00;98484.59;10489478;27;96554;-86
2023/12/02 16:48:29;;;;;;;21.33;10.70;;;1.70;99.90;;;-0.30;100.00;98493.28;10468008;27;96972;-86
2023/12/02 16:53:34;;;;;;;21.17;10.50;;;1.60;99.90;;;-0.35;100.00;98486.84;10445033;27;96529;-87
2023/12/02 16:58:38;;;;;;;18.90;10.27;;;1.60;99.90;;;-0.42;100.00;98499.63;10457279;27;96716;-86
2023/12/02 17:03:42;;;;;;;21.20;9.70;;;1.60;99.90;;;-0.46;100.00;98533.97;10465427;27;96702;-86
2023/12/02 17:08:46;;;;;;;16.27;7.83;;;1.50;99.90;;;-0.56;100.00;98541.78;10490078;27;96516;-88
2023/12/02 17:13:57;;;;;;;15.30;7.67;;;1.40;99.90;;;-0.68;100.00;98541.09;10466719;27;96653;-94
2023/12/02 17:19:09;;;;;;;19.17;10.20;;;1.30;99.90;;;-0.84;100.00;98512.97;10488024;27;96508;-92
2023/12/02 17:24:32;;;;;;;17.87;9.20;;;1.20;99.90;;;-0.90;100.00;98531.75;10468680;27;96502;-90
2023/12/02 17:29:40;;;;;;;18.07;9.30;;;1.10;99.90;;;-1.04;100.00;98537.34;10455279;27;96599;-85
2023/12/02 17:34:43;;;;;;;19.67;10.23;;;1.00;99.90;;;-1.10;100.00;98530.91;10490829;27;96609;-95
2023/12/02 17:39:47;;;;;;;15.73;8.60;;;0.90;99.90;;;-1.19;100.00;98536.94;10465951;27;96885;-89
2023/12/02 17:44:51;;;;;;;15.23;9.10;;;0.80;99.90;;;-1.24;100.00;98551.31;10471796;27;96519;-87
2023/12/02 17:49:54;;;;;;;22.27;10.70;;;0.80;99.90;;;-1.38;100.00;98557.69;10470469;27;96676;-85
2023/12/02 17:54:59;;;;;;;20.40;9.43;;;0.70;99.90;;;-1.37;100.00;98573.22;10447018;27;96728;-87
2023/12/02 18:00:06;;;;;;;18.93;9.50;;;0.60;99.90;;;-1.35;100.00;98581.72;10457261;27;96668;-88
2023/12/02 18:05:10;;;;;;;20.87;9.87;;;0.60;99.90;;;-1.33;100.00;98607.66;10453021;27;96799;-88
2023/12/02 18:10:14;;;;;;;21.30;10.53;;;0.60;99.90;;;-1.35;100.00;98623.41;10488064;27;96646;-94
2023/12/02 18:15:18;;;;;;;19.20;9.57;;;0.60;99.90;;;-1.35;100.00;98652.09;10452461;27;96455;-87
2023/12/02 18:20:22;;;;;;;19.17;9.77;;;0.70;99.90;;;-1.32;100.00;98677.06;10448354;27;98091;-89
2023/12/02 18:25:25;;;;;;;18.07;9.37;;;0.70;99.90;;;-1.33;100.00;98679.78;10490264;27;96606;-89
2023/12/02 18:30:29;;;;;;;13.90;7.47;;;0.60;99.90;;;-1.33;100.00;98700.63;10468437;27;96510;-89
2023/12/02 18:35:33;;;;;;;19.17;8.97;;;0.70;99.90;;;-1.40;100.00;98714.19;10463229;27;97267;-90
2023/12/02 18:40:38;;;;;;;18.07;10.53;;;0.70;99.90;;;-1.32;100.00;98717.91;10486117;27;98855;-94
2023/12/02 18:45:42;;;;;;;21.27;10.10;;;0.70;99.90;;;-1.37;100.00;98720.94;10492023;27;96495;-95
2023/12/02 18:50:48;;;;;;;13.10;6.53;;;0.70;99.90;;;-1.32;100.00;98723.13;10452873;27;96436;-94
2023/12/02 18:55:52;;;;;;;21.73;8.97;;;0.70;99.90;;;-1.32;100.00;98725.75;10489419;27;96473;-94
2023/12/02 19:00:56;;;;;;;19.90;9.27;;;0.70;99.90;;;-1.32;100.00;98733.56;10472345;27;96861;-89
2023/12/02 19:06:00;;;;;;;22.23;9.37;;;0.70;99.90;;;-1.34;100.00;98741.50;10467422;27;96580;-94
2023/12/02 19:11:05;;;;;;;21.83;8.17;;;0.60;99.90;;;-1.39;100.00;98752.31;10465336;27;96675;-93
2023/12/02 19:16:11;;;;;;;17.97;8.33;;;0.60;99.90;;;-1.39;100.00;98785.38;10459847;27;96581;-95
2023/12/02 19:21:20;;;;;;;23.17;8.43;;;0.60;99.90;;;-1.45;100.00;98802.31;10465176;27;96734;-96
2023/12/02 19:26:25;;;;;;;17.80;7.87;;;0.60;99.90;;;-1.41;100.00;98813.34;10463110;27;97108;-91
2023/12/02 19:31:31;;;;;;;15.57;7.53;;;0.50;99.90;;;-1.40;100.00;98847.06;10483478;27;96483;-90
2023/12/02 19:36:35;;;;;;;13.83;6.90;;;0.60;99.90;;;-1.33;100.00;98888.28;10478013;27;97738;-86
2023/12/02 19:41:41;;;;;;;11.80;6.73;;;0.60;99.90;;;-1.39;100.00;98885.22;10470261;27;96601;-85
2023/12/02 19:46:56;;;;;;;12.97;5.67;;;0.60;99.90;;;-1.29;100.00;98868.84;10442859;27;96701;-88
2023/12/02 19:52:00;;;;;;;13.63;6.07;;;0.60;99.90;;;-1.28;100.00;98857.47;10479371;27;97274;-88
2023/12/02 19:57:04;;;;;;;15.10;6.20;;;0.60;99.90;;;-1.29;100.00;98900.13;10462552;27;98397;-88
2023/12/02 20:02:08;;;;;;;18.37;6.73;;;0.60;99.90;;;-1.36;100.00;98912.81;10446734;27;96468;-89
2023/12/02 20:07:12;;;;;;;11.20;6.07;;;0.60;99.90;;;-1.31;100.00;98933.31;10446506;27;96499;-88
2023/12/02 20:12:15;;;;;;;12.13;6.07;;;0.70;99.90;;;-1.33;100.00;98950.81;10466778;27;98194;-89
2023/12/02 20:17:19;;;;;;;12.27;6.10;;;0.60;99.90;;;-1.37;100.00;98968.50;10457554;27;96554;-89
2023/12/02 20:22:24;;;;;;;16.77;5.37;;;0.60;99.90;;;-1.38;100.00;98993.72;10454784;27;96647;-87
2023/12/02 20:27:28;;;;;;;10.23;4.60;;;0.60;99.90;;;-1.33;100.00;98993.34;10447877;27;96522;-88
2023/12/02 20:32:32;;;;;;;11.80;5.30;;;0.60;99.90;;;-1.35;100.00;99011.72;10446537;27;98177;-90
2023/12/02 20:37:37;;;;;;;9.93;4.67;;;0.60;99.90;;;-1.38;100.00;99029.34;10446650;27;96569;-90
2023/12/02 20:42:40;;;;;;;12.70;4.10;;;0.60;99.90;;;-1.40;100.00;99045.13;10433812;27;97094;-90
2023/12/02 20:47:44;;;;;;;10.17;4.17;;;0.60;99.90;;;-1.39;100.00;99036.34;10469988;27;96547;-89
2023/12/02 20:52:48;;;;;;;9.67;3.77;;;0.60;99.90;;;-1.36;100.00;99062.19;10449571;27;97128;-90
2023/12/02 20:57:53;;;;;;;6.47;3.67;;;0.60;99.90;;;-1.38;100.00;99078.88;10459278;27;97033;-91
2023/12/02 21:02:58;;;;;;;7.07;2.83;;;0.60;99.90;;;-1.40;100.00;99086.81;10450723;27;96668;-94
2023/12/02 21:08:03;;;;;;;8.63;3.50;;;0.60;99.90;;;-1.41;100.00;99103.41;10487631;27;96823;-91
2023/12/02 21:13:07;;;;;;;6.97;3.33;;;0.50;99.90;;;-1.41;100.00;99119.03;10449190;27;96572;-90